Time;durP1;ratioP1;P1;durP2;ratioP2;P2;SDS_P1;SDS_P2;PMS_P1;PMS_P2;Temp;Humidity;BMP_temperature;BMP_pressure;BME280_temperature;BME280_humidity;BME280_pressure;Samples;Min_cycle;Max_cycle;Signal;HPM_P1;HPM_P2
2020/12/02 02:42:00;;;;;;;23.60;15.73;;;2.20;94.70;;;;;;6387456;23;20471;-59
2020/12/02 02:45:08;;;;;;;25.03;15.33;;;2.20;94.40;;;;;;6165805;28;20484;-59
2020/12/02 02:48:10;;;;;;;23.53;15.43;;;2.30;94.60;;;;;;6175824;28;20802;-60
2020/12/02 02:51:12;;;;;;;21.60;15.07;;;2.30;94.90;;;;;;6172772;28;20478;-61
2020/12/02 02:54:15;;;;;;;24.20;13.80;;;2.40;94.60;;;;;;6156193;29;20489;-60
2020/12/02 02:57:18;;;;;;;25.43;15.50;;;2.40;94.10;;;;;;6175829;28;20470;-63
2020/12/02 03:00:26;;;;;;;25.40;16.43;;;2.40;93.80;;;;;;6179804;28;20482;-66
2020/12/02 03:03:29;;;;;;;26.70;16.87;;;2.40;93.70;;;;;;6179499;28;20980;-67
2020/12/02 03:06:31;;;;;;;27.57;15.27;;;2.40;93.70;;;;;;6179399;28;20512;-60
2020/12/02 03:09:34;;;;;;;28.37;16.40;;;2.40;93.50;;;;;;6177654;28;20488;-60
2020/12/02 03:12:37;;;;;;;24.73;14.50;;;2.40;94.10;;;;;;6175955;28;20974;-60
2020/12/02 03:15:40;;;;;;;22.07;14.20;;;2.30;93.70;;;;;;6166502;28;20466;-60
2020/12/02 03:18:45;;;;;;;24.47;15.50;;;2.30;93.40;;;;;;6160768;28;20483;-60
2020/12/02 03:21:48;;;;;;;25.80;15.87;;;2.40;93.70;;;;;;6160282;28;20478;-60
2020/12/02 03:24:52;;;;;;;25.60;15.57;;;2.40;93.50;;;;;;6175726;28;20497;-60
2020/12/02 03:27:55;;;;;;;25.53;16.33;;;2.40;93.70;;;;;;6169986;28;20481;-60
2020/12/02 03:31:02;;;;;;;26.43;16.17;;;2.40;93.50;;;;;;6168969;28;20836;-59
2020/12/02 03:34:05;;;;;;;20.10;13.80;;;2.50;93.40;;;;;;6179113;28;20474;-60
2020/12/02 03:37:08;;;;;;;23.70;15.90;;;2.50;93.10;;;;;;6178978;28;20496;-60
2020/12/02 03:40:11;;;;;;;26.00;16.10;;;2.40;93.50;;;;;;6178858;28;20496;-60
2020/12/02 03:43:14;;;;;;;27.37;17.90;;;2.50;93.20;;;;;;6178820;28;20563;-61
2020/12/02 03:46:16;;;;;;;27.57;17.90;;;2.50;93.20;;;;;;6178978;28;20475;-60
2020/12/02 03:49:19;;;;;;;25.17;16.27;;;2.50;93.10;;;;;;6157164;28;20435;-60
2020/12/02 03:52:21;;;;;;;22.20;14.60;;;2.50;93.10;;;;;;6179231;28;20476;-61
2020/12/02 03:55:23;;;;;;;24.93;17.03;;;2.50;93.10;;;;;;6178938;28;20446;-61
2020/12/02 03:58:26;;;;;;;28.00;15.67;;;2.60;93.10;;;;;;6178603;28;20473;-61
2020/12/02 04:01:28;;;;;;;25.13;16.23;;;2.50;93.20;;;;;;6178707;28;20462;-61
2020/12/02 04:04:32;;;;;;;22.73;15.07;;;2.50;93.20;;;;;;6178385;28;20446;-61
2020/12/02 04:07:34;;;;;;;25.20;14.47;;;2.40;93.20;;;;;;6178284;28;20781;-62
2020/12/02 04:10:36;;;;;;;24.13;15.20;;;2.40;93.40;;;;;;6178236;28;21446;-61
2020/12/02 04:13:40;;;;;;;25.50;16.20;;;2.40;93.30;;;;;;6178519;28;20458;-61
2020/12/02 04:16:42;;;;;;;25.30;15.63;;;2.40;93.50;;;;;;6178480;28;20474;-61
2020/12/02 04:19:44;;;;;;;23.97;15.90;;;2.50;93.40;;;;;;6177853;28;20474;-61
2020/12/02 04:22:48;;;;;;;25.70;16.00;;;2.50;93.30;;;;;;6178389;28;20461;-61
2020/12/02 04:25:50;;;;;;;25.30;15.93;;;2.50;93.20;;;;;;6177906;28;20757;-61
2020/12/02 04:28:53;;;;;;;22.70;14.80;;;2.50;93.30;;;;;;6178328;28;20949;-61
2020/12/02 04:31:55;;;;;;;27.20;16.23;;;2.50;93.10;;;;;;6177858;28;20470;-61
2020/12/02 04:35:01;;;;;;;22.73;14.80;;;2.50;93.10;;;;;;6173586;28;20469;-61
2020/12/02 04:38:04;;;;;;;25.43;17.00;;;2.50;92.90;;;;;;6177745;28;20829;-61
2020/12/02 04:41:11;;;;;;;29.60;17.23;;;2.50;92.90;;;;;;6177433;28;20486;-61
2020/12/02 04:44:16;;;;;;;23.10;15.70;;;2.50;92.80;;;;;;6177719;28;20798;-61
2020/12/02 04:47:19;;;;;;;29.17;16.17;;;2.60;93.00;;;;;;6177490;28;20976;-61
2020/12/02 04:50:26;;;;;;;26.40;16.90;;;2.60;93.00;;;;;;6177573;28;20485;-60
2020/12/02 04:53:29;;;;;;;29.50;16.40;;;2.50;92.80;;;;;;6177656;28;20482;-61
2020/12/02 04:56:31;;;;;;;25.10;15.60;;;2.50;92.90;;;;;;6177496;28;20572;-61
2020/12/02 04:59:36;;;;;;;33.00;17.43;;;2.50;92.90;;;;;;6177357;28;20485;-61
2020/12/02 05:02:39;;;;;;;23.57;17.00;;;2.50;92.80;;;;;;6177181;28;20836;-61
2020/12/02 05:05:41;;;;;;;25.33;17.60;;;2.50;92.90;;;;;;6177136;28;20473;-61
2020/12/02 05:08:43;;;;;;;28.60;18.40;;;2.50;92.80;;;;;;6177205;28;20477;-61
2020/12/02 05:11:56;;;;;;;26.50;16.60;;;2.50;92.70;;;;;;6176921;28;20473;-60
2020/12/02 05:15:21;;;;;;;24.20;16.03;;;2.60;92.70;;;;;;6176953;28;20488;-60
2020/12/02 05:18:25;;;;;;;25.20;17.07;;;2.40;92.80;;;;;;6176896;28;20493;-60
2020/12/02 05:21:31;;;;;;;25.00;15.87;;;2.50;93.00;;;;;;6176557;28;20823;-61
2020/12/02 05:24:43;;;;;;;29.33;18.20;;;2.50;93.00;;;;;;6176844;28;20989;-61
2020/12/02 05:27:49;;;;;;;25.97;15.90;;;2.50;93.20;;;;;;6176986;28;20466;-61
2020/12/02 05:31:04;;;;;;;26.70;16.80;;;2.50;93.10;;;;;;6176725;28;20503;-60
2020/12/02 05:34:11;;;;;;;30.50;18.23;;;2.60;93.10;;;;;;6176831;28;20474;-61
2020/12/02 05:37:23;;;;;;;30.43;17.77;;;2.50;92.80;;;;;;6176656;28;20795;-61
2020/12/02 05:40:27;;;;;;;26.97;17.17;;;2.50;92.90;;;;;;6176233;28;20482;-61
2020/12/02 05:43:37;;;;;;;25.90;17.43;;;2.50;92.90;;;;;;6177099;28;20457;-61
2020/12/02 05:46:45;;;;;;;25.57;15.93;;;2.50;93.00;;;;;;6176964;28;20461;-60
2020/12/02 05:49:51;;;;;;;25.87;16.73;;;2.50;92.90;;;;;;6176819;28;20488;-61
2020/12/02 05:53:01;;;;;;;27.40;17.30;;;2.50;93.00;;;;;;6177038;28;20477;-61
2020/12/02 05:56:06;;;;;;;24.17;15.03;;;2.50;92.80;;;;;;6176411;28;20489;-61
2020/12/02 05:59:08;;;;;;;27.80;17.90;;;2.50;92.70;;;;;;6176455;28;20962;-61
2020/12/02 06:02:11;;;;;;;33.23;17.63;;;2.60;92.70;;;;;;6176279;28;20988;-61
2020/12/02 06:05:14;;;;;;;25.70;15.50;;;2.50;92.60;;;;;;6176438;28;20483;-61
2020/12/02 06:08:33;;;;;;;28.83;17.00;;;2.50;92.70;;;;;;6176394;28;20485;-61
2020/12/02 06:11:37;;;;;;;25.30;16.63;;;2.60;92.80;;;;;;6176342;28;20815;-61
2020/12/02 06:14:40;;;;;;;31.63;18.17;;;2.60;92.70;;;;;;6176340;28;20477;-61
2020/12/02 06:17:44;;;;;;;26.70;16.63;;;2.50;92.70;;;;;;6176528;28;20466;-61
2020/12/02 06:20:47;;;;;;;33.10;17.87;;;2.40;92.60;;;;;;6175789;28;20824;-61
2020/12/02 06:23:56;;;;;;;26.37;16.60;;;2.50;92.70;;;;;;6176380;28;20466;-61
2020/12/02 06:26:59;;;;;;;28.17;18.30;;;2.50;92.80;;;;;;6176194;28;20470;-61
2020/12/02 06:30:20;;;;;;;22.93;15.13;;;2.50;92.70;;;;;;6176240;28;20990;-63
2020/12/02 06:33:31;;;;;;;25.80;16.20;;;2.30;92.60;;;;;;6179691;28;20977;-62
2020/12/02 06:36:35;;;;;;;28.10;17.03;;;2.30;92.50;;;;;;6180731;28;20480;-62
2020/12/02 06:39:39;;;;;;;25.57;16.70;;;2.40;92.60;;;;;;6180162;28;20821;-62
2020/12/02 06:42:42;;;;;;;27.17;15.90;;;2.40;92.50;;;;;;6180258;28;20473;-62
2020/12/02 06:45:45;;;;;;;25.17;15.83;;;2.40;92.30;;;;;;6166895;28;20558;-62
2020/12/02 06:48:50;;;;;;;24.33;16.60;;;2.50;92.10;;;;;;6180235;28;20492;-62
2020/12/02 06:52:05;;;;;;;24.63;15.50;;;2.50;92.10;;;;;;6180225;28;20991;-62
2020/12/02 06:55:18;;;;;;;27.40;16.60;;;2.50;92.10;;;;;;6180137;28;20485;-61
2020/12/02 06:58:21;;;;;;;25.37;17.67;;;2.50;92.30;;;;;;6180196;28;20466;-61
2020/12/02 07:01:25;;;;;;;27.17;17.47;;;2.50;92.30;;;;;;6180143;28;20466;-64
2020/12/02 07:04:29;;;;;;;27.33;17.47;;;2.40;92.00;;;;;;6179746;28;20773;-61
2020/12/02 07:07:32;;;;;;;26.23;17.60;;;2.40;92.00;;;;;;6180190;28;20768;-61
2020/12/02 07:10:34;;;;;;;27.67;17.57;;;2.40;92.30;;;;;;6179833;28;20469;-61
2020/12/02 07:13:39;;;;;;;29.47;18.20;;;2.40;92.20;;;;;;6179995;28;20460;-61
2020/12/02 07:16:41;;;;;;;30.97;16.47;;;2.50;92.70;;;;;;6179978;28;20454;-61
2020/12/02 07:19:47;;;;;;;21.90;16.23;;;2.60;92.40;;;;;;6179190;28;20481;-62
2020/12/02 07:22:53;;;;;;;22.53;16.00;;;2.70;92.20;;;;;;6180033;28;20466;-61
2020/12/02 07:25:58;;;;;;;21.17;15.13;;;2.80;91.90;;;;;;6179516;28;20585;-61
2020/12/02 07:29:01;;;;;;;24.37;15.53;;;2.80;91.50;;;;;;6179410;28;20957;-61
2020/12/02 07:32:06;;;;;;;24.57;15.57;;;2.80;91.50;;;;;;6179175;28;20805;-61
2020/12/02 07:35:15;;;;;;;25.40;17.37;;;2.90;91.50;;;;;;6178926;28;21012;-62
2020/12/02 07:38:18;;;;;;;31.70;18.60;;;3.10;91.50;;;;;;6179145;28;20486;-61
2020/12/02 07:41:22;;;;;;;21.17;15.13;;;3.10;91.20;;;;;;6178877;28;20514;-63
2020/12/02 07:44:26;;;;;;;23.50;16.47;;;3.20;91.30;;;;;;6178550;28;20474;-62
2020/12/02 07:47:29;;;;;;;26.33;16.10;;;3.30;90.90;;;;;;6169764;28;20477;-62
2020/12/02 07:50:34;;;;;;;25.27;15.03;;;3.30;90.80;;;;;;6178552;28;20508;-63
2020/12/02 07:53:50;;;;;;;22.00;15.13;;;3.40;90.80;;;;;;6178896;28;20474;-62
2020/12/02 07:56:53;;;;;;;28.17;17.13;;;3.40;90.70;;;;;;6178359;28;20471;-62
2020/12/02 08:00:26;;;;;;;25.20;16.00;;;3.30;90.40;;;;;;6173153;28;20489;-64
2020/12/02 08:03:33;;;;;;;24.67;15.87;;;3.30;90.60;;;;;;6119054;29;20471;-66
2020/12/02 08:06:44;;;;;;;29.60;16.63;;;3.20;90.50;;;;;;6161308;28;20458;-63
2020/12/02 08:09:49;;;;;;;27.40;16.90;;;3.20;90.80;;;;;;6177854;28;20493;-65
2020/12/02 08:12:51;;;;;;;26.73;17.10;;;3.30;90.80;;;;;;6177787;28;20788;-63
2020/12/02 08:15:56;;;;;;;22.90;15.00;;;3.30;90.80;;;;;;6164671;28;20844;-64
2020/12/02 08:18:58;;;;;;;24.03;17.10;;;3.40;90.50;;;;;;6153849;29;20829;-64
2020/12/02 08:22:02;;;;;;;27.93;16.23;;;3.30;90.20;;;;;;6153701;29;20490;-64
2020/12/02 08:25:20;;;;;;;25.80;16.10;;;3.30;90.40;;;;;;6153795;29;20478;-64
2020/12/02 08:28:32;;;;;;;31.23;17.10;;;3.20;90.60;;;;;;6153888;28;20847;-64
2020/12/02 08:31:35;;;;;;;29.50;18.80;;;3.20;90.50;;;;;;6155100;28;20471;-63
2020/12/02 08:34:38;;;;;;;27.20;18.40;;;3.20;90.60;;;;;;6177477;28;20458;-69
2020/12/02 08:37:40;;;;;;;30.40;18.27;;;3.20;91.20;;;;;;6177840;28;20465;-61
2020/12/02 08:40:46;;;;;;;33.07;18.93;;;3.00;91.40;;;;;;6176722;28;20824;-61
2020/12/02 08:43:48;;;;;;;29.67;19.03;;;3.00;91.80;;;;;;6182183;28;20474;-61
2020/12/02 08:46:55;;;;;;;33.13;20.47;;;3.00;91.80;;;;;;6187829;28;20814;-61
2020/12/02 08:49:57;;;;;;;30.57;18.83;;;3.10;91.80;;;;;;6178616;28;20563;-61
2020/12/02 08:53:02;;;;;;;37.10;20.90;;;3.20;91.60;;;;;;6185384;28;20477;-61
2020/12/02 08:56:20;;;;;;;32.63;20.63;;;3.40;91.60;;;;;;6189766;28;20476;-61
2020/12/02 08:59:22;;;;;;;38.17;21.50;;;3.50;91.50;;;;;;6184524;28;20820;-62
2020/12/02 09:02:26;;;;;;;36.97;22.50;;;3.70;91.60;;;;;;6199247;28;20817;-64
2020/12/02 09:05:28;;;;;;;36.27;22.07;;;4.00;91.20;;;;;;6186717;28;20465;-61
2020/12/02 09:08:30;;;;;;;32.40;21.00;;;4.20;90.70;;;;;;6188715;28;20476;-64
2020/12/02 09:11:35;;;;;;;36.23;21.30;;;4.30;90.10;;;;;;6189948;28;20473;-61
2020/12/02 09:14:39;;;;;;;30.90;20.93;;;4.20;89.90;;;;;;6196049;28;20461;-62
2020/12/02 09:17:42;;;;;;;32.37;21.47;;;4.30;90.10;;;;;;6200703;28;20499;-61
2020/12/02 09:20:45;;;;;;;33.83;21.13;;;4.30;89.80;;;;;;6200497;28;20484;-61
2020/12/02 09:23:47;;;;;;;33.17;19.80;;;3.80;90.70;;;;;;6200800;28;20468;-61
2020/12/02 09:26:50;;;;;;;30.80;19.27;;;3.80;90.70;;;;;;6200713;28;20916;-68
2020/12/02 09:29:53;;;;;;;27.07;20.33;;;3.60;90.90;;;;;;6186432;28;20484;-67
2020/12/02 09:32:56;;;;;;;29.37;18.90;;;3.30;91.40;;;;;;6174735;28;20473;-68
2020/12/02 09:35:58;;;;;;;29.83;19.60;;;3.50;91.60;;;;;;6174855;28;20466;-68
2020/12/02 09:39:01;;;;;;;28.37;18.40;;;3.80;91.40;;;;;;6174749;28;20496;-66
2020/12/02 09:42:43;;;;;;;26.87;17.83;;;3.90;91.30;;;;;;6156672;28;20474;-68
2020/12/02 09:45:52;;;;;;;29.97;21.70;;;4.10;90.50;;;;;;6185853;28;20489;-63
2020/12/02 09:48:55;;;;;;;29.00;20.80;;;4.30;90.10;;;;;;6182643;28;20478;-63
2020/12/02 09:52:19;;;;;;;30.10;19.70;;;4.40;90.00;;;;;;6184427;28;20498;-63
2020/12/02 09:55:25;;;;;;;26.87;17.70;;;4.60;89.00;;;;;;6175504;28;20890;-62
2020/12/02 09:58:28;;;;;;;25.60;18.80;;;4.90;88.00;;;;;;6187299;28;20441;-62
2020/12/02 10:01:44;;;;;;;31.13;19.07;;;5.10;87.60;;;;;;6181607;28;20466;-63
2020/12/02 10:05:13;;;;;;;27.57;19.40;;;5.30;86.40;;;;;;6185069;28;20481;-63
2020/12/02 10:08:22;;;;;;;28.47;18.03;;;5.40;85.40;;;;;;6195564;28;20481;-62
2020/12/02 10:11:33;;;;;;;31.77;19.10;;;5.30;84.90;;;;;;6195169;28;20987;-62
2020/12/02 10:14:57;;;;;;;33.43;20.47;;;5.30;84.90;;;;;;6201650;28;20469;-62
2020/12/02 10:18:31;;;;;;;27.43;18.83;;;5.30;84.70;;;;;;6187524;28;20474;-62
2020/12/02 10:21:50;;;;;;;26.17;18.50;;;5.30;85.10;;;;;;6190103;28;20477;-62
2020/12/02 10:25:06;;;;;;;31.13;19.30;;;5.30;84.70;;;;;;6187945;28;20577;-62
2020/12/02 10:28:27;;;;;;;26.87;19.17;;;5.30;84.70;;;;;;6199308;28;20473;-63
2020/12/02 10:31:45;;;;;;;31.17;20.60;;;5.30;84.90;;;;;;6191041;28;20482;-62
2020/12/02 10:34:48;;;;;;;37.70;22.87;;;5.40;85.00;;;;;;6189397;28;20493;-66
2020/12/02 10:37:55;;;;;;;29.80;20.27;;;5.30;84.30;;;;;;6180626;28;20961;-66
2020/12/02 10:41:09;;;;;;;27.57;19.13;;;5.20;84.10;;;;;;6177838;28;20470;-60
2020/12/02 10:44:28;;;;;;;31.40;21.37;;;5.20;84.10;;;;;;6183071;28;20476;-65
2020/12/02 10:48:06;;;;;;;31.20;22.40;;;5.10;84.30;;;;;;6183783;28;20482;-65
2020/12/02 10:51:11;;;;;;;31.93;21.40;;;5.10;84.90;;;;;;6159728;28;20477;-65
2020/12/02 10:54:15;;;;;;;30.33;18.90;;;5.00;84.90;;;;;;6189414;28;20476;-69
2020/12/02 10:57:21;;;;;;;29.70;19.33;;;5.10;85.30;;;;;;6188781;28;20468;-68
2020/12/02 11:00:23;;;;;;;31.13;19.57;;;5.10;85.20;;;;;;6179602;28;20822;-68
2020/12/02 11:03:28;;;;;;;31.57;20.13;;;5.00;85.20;;;;;;6190129;28;20473;-66
2020/12/02 11:06:49;;;;;;;32.03;20.73;;;4.90;85.10;;;;;;6191953;28;20617;-63
2020/12/02 11:09:58;;;;;;;32.87;23.80;;;4.80;85.90;;;;;;6179320;28;20474;-66
2020/12/02 11:13:14;;;;;;;35.13;22.10;;;4.80;86.40;;;;;;6179176;28;20474;-65
2020/12/02 11:16:29;;;;;;;34.60;20.27;;;5.00;86.30;;;;;;6179133;28;20482;-64
2020/12/02 11:19:46;;;;;;;29.40;20.30;;;5.40;86.20;;;;;;6178206;28;20789;-66
2020/12/02 11:23:13;;;;;;;32.73;19.30;;;6.30;84.20;;;;;;6178771;28;20815;-63
2020/12/02 11:26:23;;;;;;;27.20;20.10;;;7.60;79.10;;;;;;6179228;28;20514;-66
2020/12/02 11:29:25;;;;;;;27.80;18.90;;;8.90;74.50;;;;;;6179202;28;20544;-66
2020/12/02 11:32:54;;;;;;;27.80;18.40;;;9.30;69.00;;;;;;6178815;28;20520;-66
2020/12/02 11:36:32;;;;;;;31.07;20.30;;;9.10;67.50;;;;;;6178721;28;20564;-66
2020/12/02 11:40:03;;;;;;;30.53;19.37;;;8.80;67.30;;;;;;6175165;28;20489;-65
2020/12/02 11:43:13;;;;;;;27.60;20.60;;;8.60;66.60;;;;;;6177841;28;20462;-64
2020/12/02 11:46:21;;;;;;;28.30;19.23;;;8.30;67.00;;;;;;6178812;28;20553;-64
2020/12/02 11:49:34;;;;;;;28.20;21.93;;;7.90;67.40;;;;;;6192367;28;20475;-61
2020/12/02 11:52:48;;;;;;;29.87;20.47;;;7.60;68.90;;;;;;6199070;28;20430;-63
2020/12/02 11:56:07;;;;;;;30.63;20.30;;;7.30;69.70;;;;;;6202294;28;20468;-64
2020/12/02 11:59:15;;;;;;;29.10;20.50;;;7.10;70.80;;;;;;6199237;28;20477;-67
2020/12/02 12:02:34;;;;;;;31.27;19.23;;;7.00;70.90;;;;;;6168686;28;20477;-63
2020/12/02 12:05:50;;;;;;;31.70;20.47;;;7.00;72.60;;;;;;6187404;28;20544;-65
2020/12/02 12:09:04;;;;;;;31.57;19.87;;;7.30;72.60;;;;;;6177857;28;20477;-64
2020/12/02 12:12:17;;;;;;;32.70;19.40;;;7.70;70.70;;;;;;6177651;28;20478;-63
2020/12/02 12:15:30;;;;;;;30.33;20.10;;;7.90;69.20;;;;;;6160083;28;20801;-66
2020/12/02 12:18:47;;;;;;;30.20;19.80;;;7.70;68.70;;;;;;6153674;29;20813;-66
2020/12/02 12:22:09;;;;;;;32.10;22.50;;;7.40;70.30;;;;;;6153753;29;21002;-65
2020/12/02 12:25:16;;;;;;;34.73;21.00;;;7.20;71.00;;;;;;6153498;29;20475;-64
2020/12/02 12:28:26;;;;;;;30.60;22.30;;;7.10;71.40;;;;;;6153493;28;20557;-64
2020/12/02 12:31:35;;;;;;;27.63;20.37;;;7.10;72.00;;;;;;6153585;28;20466;-66
2020/12/02 12:34:45;;;;;;;32.27;20.43;;;7.00;72.00;;;;;;6164979;28;20533;-63
2020/12/02 12:37:59;;;;;;;30.70;21.30;;;6.80;72.30;;;;;;6177594;28;20519;-64
2020/12/02 12:41:04;;;;;;;31.70;20.17;;;6.50;73.30;;;;;;6176828;28;20478;-64
2020/12/02 12:44:13;;;;;;;31.23;19.27;;;5.90;74.90;;;;;;6182397;28;20476;-66
2020/12/02 12:47:23;;;;;;;30.60;21.43;;;5.70;76.80;;;;;;6186699;28;20532;-67
2020/12/02 12:50:26;;;;;;;31.03;22.93;;;5.50;77.00;;;;;;6201310;28;20977;-65
2020/12/02 12:53:36;;;;;;;36.93;22.97;;;5.20;78.60;;;;;;6201244;28;20560;-64
2020/12/02 12:56:40;;;;;;;34.80;22.77;;;5.20;79.10;;;;;;6201256;28;20473;-66
2020/12/02 12:59:44;;;;;;;33.80;21.37;;;5.20;79.80;;;;;;6194094;28;20485;-65
2020/12/02 13:03:10;;;;;;;35.97;24.00;;;4.90;80.10;;;;;;6176672;28;20572;-66
2020/12/02 13:06:28;;;;;;;30.70;21.77;;;5.00;81.00;;;;;;6176737;28;20958;-64
2020/12/02 13:09:43;;;;;;;33.60;22.20;;;4.90;80.60;;;;;;6172574;28;20962;-62
2020/12/02 13:12:54;;;;;;;36.07;20.43;;;4.60;81.80;;;;;;6185047;28;20477;-64
2020/12/02 13:16:04;;;;;;;35.23;19.67;;;4.60;81.50;;;;;;6189774;28;20485;-65
2020/12/02 13:19:18;;;;;;;31.27;20.50;;;4.50;82.20;;;;;;6171093;28;20466;-61
2020/12/02 13:22:32;;;;;;;33.23;21.00;;;4.40;83.80;;;;;;6184214;28;20462;-61
2020/12/02 13:25:37;;;;;;;34.90;21.10;;;4.50;83.90;;;;;;6181026;28;20438;-61
2020/12/02 13:28:53;;;;;;;37.63;22.70;;;4.40;83.90;;;;;;6186739;28;20633;-61
2020/12/02 13:32:02;;;;;;;34.83;21.80;;;4.30;84.10;;;;;;6196182;28;20809;-62
2020/12/02 13:35:07;;;;;;;35.17;22.17;;;4.30;85.50;;;;;;6200829;28;20968;-61
2020/12/02 13:38:14;;;;;;;32.33;20.97;;;4.10;85.90;;;;;;6200725;28;20479;-62
2020/12/02 13:41:22;;;;;;;29.70;21.80;;;4.10;86.40;;;;;;6202588;28;20484;-61
2020/12/02 13:44:33;;;;;;;37.57;24.37;;;3.80;87.00;;;;;;6205879;28;20479;-61
2020/12/02 13:47:38;;;;;;;36.60;22.10;;;3.40;89.50;;;;;;6205723;28;20483;-60
2020/12/02 13:50:40;;;;;;;35.67;22.90;;;3.40;90.50;;;;;;6205323;28;20563;-61
2020/12/02 13:53:47;;;;;;;37.17;22.97;;;3.30;90.70;;;;;;6205363;28;20479;-60
2020/12/02 13:56:58;;;;;;;32.50;20.40;;;3.40;91.30;;;;;;6205135;28;20512;-60
2020/12/02 14:00:18;;;;;;;35.07;20.30;;;3.40;91.80;;;;;;6195274;28;20493;-61
2020/12/02 14:03:52;;;;;;;31.53;22.30;;;3.50;92.20;;;;;;6180932;28;20482;-61
2020/12/02 14:06:58;;;;;;;35.60;21.53;;;3.60;92.60;;;;;;6156518;28;20478;-61
2020/12/02 14:10:10;;;;;;;36.90;22.47;;;3.40;93.40;;;;;;6180901;28;20477;-60
2020/12/02 14:13:13;;;;;;;31.17;20.30;;;3.30;94.10;;;;;;6171797;28;21015;-60
2020/12/02 14:16:15;;;;;;;31.77;23.17;;;3.40;94.50;;;;;;6180660;28;20965;-61
2020/12/02 14:19:19;;;;;;;30.00;19.53;;;3.40;94.80;;;;;;6180371;28;20545;-61
2020/12/02 14:22:24;;;;;;;31.30;21.60;;;3.40;95.20;;;;;;6178314;28;20478;-61
2020/12/02 14:25:27;;;;;;;33.90;20.87;;;3.20;95.50;;;;;;6180117;28;20799;-61
2020/12/02 14:28:29;;;;;;;33.77;20.30;;;3.10;95.90;;;;;;6179880;28;20798;-61
2020/12/02 14:31:36;;;;;;;33.13;21.43;;;3.10;96.10;;;;;;6180419;28;20458;-61
2020/12/02 14:34:39;;;;;;;36.13;22.30;;;3.00;96.60;;;;;;6179899;28;20449;-61
2020/12/02 14:37:42;;;;;;;35.10;21.03;;;3.00;97.00;;;;;;6180303;28;20470;-61
2020/12/02 14:40:48;;;;;;;39.60;23.87;;;2.90;97.20;;;;;;6179147;28;20981;-61
2020/12/02 14:43:51;;;;;;;31.00;19.27;;;2.80;97.60;;;;;;6180255;28;20612;-61
2020/12/02 14:46:53;;;;;;;36.33;21.47;;;2.80;97.90;;;;;;6179788;28;20473;-61
2020/12/02 14:49:56;;;;;;;35.83;21.67;;;2.70;98.20;;;;;;6179829;28;20478;-60
2020/12/02 14:52:58;;;;;;;37.10;24.40;;;2.70;98.30;;;;;;6178316;28;20485;-61
2020/12/02 14:56:11;;;;;;;35.03;21.13;;;2.70;98.70;;;;;;6179266;28;20474;-61
2020/12/02 14:59:26;;;;;;;30.93;20.13;;;2.70;99.00;;;;;;6179410;28;20809;-61
2020/12/02 15:02:28;;;;;;;39.10;22.43;;;2.80;99.10;;;;;;6159147;28;20488;-61
2020/12/02 15:05:33;;;;;;;33.90;22.20;;;2.60;99.30;;;;;;6155967;28;20471;-65
2020/12/02 15:09:00;;;;;;;34.47;21.57;;;2.50;99.90;;;;;;6179004;28;20481;-63
2020/12/02 15:12:05;;;;;;;33.83;22.07;;;2.50;99.90;;;;;;6179433;28;20556;-63
2020/12/02 15:15:10;;;;;;;33.30;22.13;;;2.50;99.90;;;;;;6170755;28;20816;-64
2020/12/02 15:18:15;;;;;;;37.00;24.37;;;2.40;99.90;;;;;;6179165;28;20496;-64
2020/12/02 15:21:23;;;;;;;40.20;24.93;;;2.30;99.90;;;;;;6178833;28;20489;-62
2020/12/02 15:24:25;;;;;;;31.90;22.43;;;2.20;99.90;;;;;;6178834;28;20478;-62
2020/12/02 15:27:31;;;;;;;37.47;22.70;;;2.20;99.90;;;;;;6179035;28;20478;-63
2020/12/02 15:30:39;;;;;;;37.70;22.93;;;2.20;99.90;;;;;;6178673;28;20899;-63
2020/12/02 15:33:42;;;;;;;38.00;23.30;;;2.20;99.90;;;;;;6178907;28;20478;-62
2020/12/02 15:36:49;;;;;;;36.00;23.40;;;2.10;99.90;;;;;;6178508;28;20488;-63
2020/12/02 15:40:00;;;;;;;39.03;22.67;;;2.10;99.90;;;;;;6178629;28;20974;-63
2020/12/02 15:43:18;;;;;;;42.70;22.00;;;2.10;99.90;;;;;;6178675;28;20478;-63
2020/12/02 15:46:40;;;;;;;40.07;22.37;;;2.00;99.90;;;;;;6178604;28;20446;-63
2020/12/02 15:49:51;;;;;;;35.17;22.13;;;2.10;99.90;;;;;;6178444;28;20473;-63
2020/12/02 15:53:05;;;;;;;41.03;24.83;;;2.20;99.90;;;;;;6178569;28;20469;-64
2020/12/02 15:56:19;;;;;;;41.63;23.73;;;2.20;99.90;;;;;;6178652;28;20469;-63
2020/12/02 15:59:26;;;;;;;39.70;24.10;;;2.20;99.90;;;;;;6156439;28;20820;-63
2020/12/02 16:02:29;;;;;;;40.97;25.43;;;2.10;99.90;;;;;;6154540;28;20475;-65
2020/12/02 16:05:34;;;;;;;37.87;26.10;;;2.10;99.90;;;;;;6154281;28;20826;-59
2020/12/02 16:08:40;;;;;;;44.10;26.40;;;2.20;99.90;;;;;;6178226;28;20480;-61
2020/12/02 16:11:43;;;;;;;38.20;24.60;;;2.20;99.90;;;;;;6178189;28;20562;-62
2020/12/02 16:14:45;;;;;;;38.27;23.73;;;2.20;99.90;;;;;;6178076;28;20466;-60
2020/12/02 16:17:48;;;;;;;44.83;29.85;;;2.10;99.90;;;;;;6172002;28;20577;-61
2020/12/02 16:20:51;;;;;;;40.80;26.00;;;2.10;99.90;;;;;;6164670;28;20337;-67
2020/12/02 16:23:57;;;;;;;39.23;23.13;;;2.30;99.90;;;;;;6158632;28;20768;-69
2020/12/02 16:27:04;;;;;;;40.60;25.27;;;2.30;99.90;;;;;;6177682;28;20984;-67
2020/12/02 16:30:08;;;;;;;43.33;24.80;;;2.40;99.90;;;;;;6177336;28;20474;-67
2020/12/02 16:33:18;;;;;;;41.57;25.40;;;2.40;99.90;;;;;;6177505;28;20481;-66
2020/12/02 16:36:23;;;;;;;45.60;25.60;;;2.30;99.90;;;;;;6177222;28;20969;-70
2020/12/02 16:39:32;;;;;;;35.73;23.30;;;2.30;99.90;;;;;;6177931;28;20480;-67
2020/12/02 16:42:42;;;;;;;39.20;26.40;;;2.20;99.90;;;;;;6176959;28;20493;-66
2020/12/02 16:45:52;;;;;;;42.07;26.57;;;2.30;99.90;;;;;;6177565;28;20474;-64
2020/12/02 16:49:45;;;;;;;41.97;27.63;;;2.30;99.90;;;;;;6177394;28;20474;-65
2020/12/02 16:53:09;;;;;;;42.63;25.53;;;2.30;99.90;;;;;;6177013;28;20511;-68
2020/12/02 16:56:27;;;;;;;42.03;26.53;;;2.20;99.90;;;;;;6177733;28;20474;-66
2020/12/02 16:59:35;;;;;;;38.20;24.10;;;2.10;99.90;;;;;;6153887;28;20482;-65
2020/12/02 17:02:40;;;;;;;42.10;24.60;;;2.00;99.90;;;;;;6152217;28;20822;-67
2020/12/02 17:05:44;;;;;;;42.03;25.83;;;1.80;99.90;;;;;;6154130;28;20471;-64
2020/12/02 17:08:49;;;;;;;41.67;24.00;;;1.90;99.90;;;;;;6176943;28;20532;-65
2020/12/02 17:12:08;;;;;;;37.10;23.93;;;2.00;99.90;;;;;;6176640;28;20486;-68
2020/12/02 17:15:36;;;;;;;41.53;23.83;;;2.00;99.90;;;;;;6176155;28;20475;-67
2020/12/02 17:18:55;;;;;;;37.57;24.10;;;1.90;99.90;;;;;;6174597;28;20477;-67
2020/12/02 17:22:06;;;;;;;43.60;25.17;;;1.90;99.90;;;;;;6176170;28;20489;-65
2020/12/02 17:25:26;;;;;;;41.20;24.17;;;2.00;99.90;;;;;;6176734;28;20477;-68
2020/12/02 17:29:10;;;;;;;48.83;25.90;;;2.00;99.90;;;;;;6166990;28;20467;-65
2020/12/02 17:32:21;;;;;;;40.90;25.37;;;2.00;99.90;;;;;;6084218;29;20517;-67
2020/12/02 17:35:36;;;;;;;40.50;24.33;;;1.90;99.90;;;;;;6152738;29;20482;-65
2020/12/02 17:39:12;;;;;;;39.07;23.67;;;1.90;99.90;;;;;;6152510;29;20981;-66
2020/12/02 17:42:42;;;;;;;33.00;20.87;;;2.00;99.90;;;;;;6152245;29;20479;-66
2020/12/02 17:45:49;;;;;;;36.20;21.57;;;1.90;99.90;;;;;;6152817;29;20558;-68
2020/12/02 17:48:58;;;;;;;32.83;20.80;;;1.70;99.90;;;;;;6152347;29;20506;-67
2020/12/02 17:52:46;;;;;;;30.13;20.53;;;1.70;99.90;;;;;;6152320;28;20497;-63
2020/12/02 17:55:53;;;;;;;32.20;20.43;;;1.70;99.90;;;;;;6101152;28;20617;-63
2020/12/02 17:58:57;;;;;;;30.07;19.43;;;1.70;99.90;;;;;;6172913;28;20458;-66
2020/12/02 18:02:25;;;;;;;33.77;22.50;;;1.70;99.90;;;;;;6160018;28;20509;-67
2020/12/02 18:05:38;;;;;;;36.43;21.73;;;1.70;99.90;;;;;;6152403;28;20482;-65
2020/12/02 18:08:58;;;;;;;36.73;21.93;;;1.80;99.90;;;;;;6152506;29;20478;-67
2020/12/02 18:12:13;;;;;;;38.80;20.93;;;1.90;99.90;;;;;;6152403;29;20506;-65
2020/12/02 18:15:22;;;;;;;36.00;24.33;;;1.90;99.90;;;;;;6152454;29;20471;-67
2020/12/02 18:18:50;;;;;;;43.47;23.53;;;1.80;99.90;;;;;;6152339;29;20985;-67
2020/12/02 18:22:10;;;;;;;35.73;23.40;;;1.90;99.90;;;;;;6152034;29;20489;-62
2020/12/02 18:25:29;;;;;;;35.77;21.67;;;1.90;99.90;;;;;;6165958;28;20476;-64
2020/12/02 18:28:56;;;;;;;36.70;23.10;;;1.90;99.90;;;;;;6179877;28;20790;-63
2020/12/02 18:32:07;;;;;;;39.90;26.50;;;1.90;99.90;;;;;;6156243;29;20474;-63
2020/12/02 18:35:23;;;;;;;44.00;25.00;;;1.80;99.90;;;;;;6172524;28;20480;-63
2020/12/02 18:38:37;;;;;;;32.17;22.30;;;1.80;99.90;;;;;;6180118;28;20822;-62
2020/12/02 18:41:53;;;;;;;36.77;24.13;;;1.80;99.90;;;;;;6180118;28;20966;-63
2020/12/02 18:44:58;;;;;;;39.57;24.27;;;1.80;99.90;;;;;;6180684;28;20485;-62
2020/12/02 18:48:00;;;;;;;39.87;20.97;;;1.70;99.90;;;;;;6174046;28;20807;-62
2020/12/02 18:51:04;;;;;;;37.47;22.77;;;1.80;99.90;;;;;;6162548;28;20469;-64